createdAt,value
2018-02-04T00:02:24.568Z,99700.16
2018-02-04T00:04:53.807Z,99699.36
2018-02-04T00:07:23.804Z,99700.96
2018-02-04T00:09:53.037Z,99702.83
2018-02-04T00:12:23.006Z,99702.57
2018-02-04T00:14:52.223Z,99712.44
2018-02-04T00:17:22.946Z,99708.02
2018-02-04T00:19:52.185Z,99713.38
2018-02-04T00:22:43.217Z,99723.53
2018-02-04T00:25:12.769Z,99725.92
2018-02-04T00:27:41.997Z,99734.09
2018-02-04T00:30:12.022Z,99733.82
2018-02-04T00:32:41.974Z,99738.10
2018-02-04T00:35:11.176Z,99737.28
2018-02-04T00:37:40.406Z,99742.48
2018-02-04T00:40:10.419Z,99754.51
2018-02-04T00:42:39.632Z,99753.06
2018-02-04T00:45:08.847Z,99758.00
2018-02-04T00:47:38.855Z,99759.35
2018-02-04T00:50:08.099Z,99762.69
2018-02-04T00:52:37.468Z,99754.55
2018-02-04T00:55:06.688Z,99769.11
2018-02-04T00:57:35.893Z,99767.37
2018-02-04T01:00:05.918Z,99770.45
2018-02-04T01:02:35.152Z,99771.80
2018-02-04T01:05:05.214Z,99770.16
2018-02-04T01:07:34.425Z,99777.26
2018-02-04T01:10:03.655Z,99774.31
2018-02-04T01:12:33.630Z,99777.11
2018-02-04T01:15:02.874Z,99784.75
2018-02-04T01:17:32.932Z,99787.66
2018-02-04T01:20:02.129Z,99805.02
2018-02-04T01:22:31.355Z,99797.41
2018-02-04T01:25:00.574Z,99808.09
2018-02-04T01:27:29.811Z,99814.62
2018-02-04T01:29:59.022Z,99812.72
2018-02-04T01:32:28.251Z,99819.64
2018-02-04T01:34:57.455Z,99825.52
2018-02-04T01:37:28.169Z,99818.31
2018-02-04T01:39:57.395Z,99821.78
2018-02-04T01:42:26.669Z,99821.11
2018-02-04T01:44:55.907Z,99828.05
2018-02-04T01:47:25.186Z,99829.63
2018-02-04T01:49:54.419Z,99830.46
2018-02-04T01:52:24.389Z,99842.21
2018-02-04T01:54:53.640Z,99838.45
2018-02-04T01:57:22.838Z,99837.41
2018-02-04T01:59:52.121Z,99844.75
2018-02-04T02:02:21.335Z,99845.02
2018-02-04T02:04:50.586Z,99842.75
2018-02-04T02:07:19.809Z,99843.13
2018-02-04T02:09:49.844Z,99843.49
2018-02-04T02:12:19.055Z,99845.77
2018-02-04T02:14:48.300Z,99849.47
2018-02-04T02:17:17.498Z,99848.23
2018-02-04T02:19:47.510Z,99846.50
2018-02-04T02:22:16.717Z,99859.48
2018-02-04T02:24:46.002Z,99861.35
2018-02-04T02:27:15.218Z,99862.81
2018-02-04T02:29:45.187Z,99860.55
2018-02-04T02:32:14.462Z,99866.83
2018-02-04T02:34:43.764Z,99866.16
2018-02-04T02:37:13.010Z,99877.47
2018-02-04T02:39:42.214Z,99878.27
2018-02-04T02:42:11.731Z,99876.77
2018-02-04T02:44:40.960Z,99880.50
2018-02-04T02:47:10.204Z,99885.00
2018-02-04T02:49:39.498Z,99885.56
2018-02-04T02:52:08.783Z,99894.28
2018-02-04T02:54:38.003Z,99889.98
2018-02-04T02:57:07.205Z,99898.39
2018-02-04T02:59:36.447Z,99902.29
2018-02-04T03:02:05.645Z,99902.52
2018-02-04T03:04:35.119Z,99915.64
2018-02-04T03:07:04.351Z,99914.47
2018-02-04T03:09:33.584Z,99919.42
2018-02-04T03:12:02.819Z,99925.20
2018-02-04T03:14:32.839Z,99931.97
2018-02-04T03:17:02.917Z,99926.76
2018-02-04T03:19:32.154Z,99931.00
2018-02-04T03:22:02.130Z,99936.73
2018-02-04T03:24:31.400Z,99933.00
2018-02-04T03:27:00.596Z,99948.08
2018-02-04T03:29:29.814Z,99949.45
2018-02-04T03:31:59.012Z,99949.81
2018-02-04T03:34:28.224Z,99954.22
2018-02-04T03:36:57.565Z,99959.69
2018-02-04T03:39:27.644Z,99961.16
2018-02-04T03:41:56.842Z,99965.65
2018-02-04T03:44:26.084Z,99962.75
2018-02-04T03:46:55.307Z,99966.27
2018-02-04T03:49:24.571Z,99965.61
2018-02-04T03:51:54.537Z,99976.11
2018-02-04T03:54:23.825Z,99982.91
2018-02-04T03:56:53.081Z,99985.58
2018-02-04T03:59:23.056Z,99984.34
2018-02-04T04:01:52.361Z,99987.27
2018-02-04T04:04:21.836Z,99993.41
2018-02-04T04:06:51.101Z,100003.28
2018-02-04T04:09:21.094Z,100005.30
2018-02-04T04:11:51.105Z,100009.87
2018-02-04T04:14:20.321Z,100011.33
2018-02-04T04:16:50.314Z,100018.23
2018-02-04T04:19:19.676Z,100013.47
2018-02-04T04:21:48.906Z,100018.76
2018-02-04T04:24:18.183Z,100024.89
2018-02-04T04:26:47.650Z,100024.50
2018-02-04T04:29:16.926Z,100025.03
2018-02-04T04:31:46.239Z,100033.94
2018-02-04T04:34:16.278Z,100030.19
2018-02-04T04:36:45.603Z,100037.30
2018-02-04T04:39:14.835Z,100039.31
2018-02-04T04:41:44.068Z,100043.05
2018-02-04T04:44:13.322Z,100042.66
2018-02-04T04:46:42.567Z,100049.06
2018-02-04T04:49:11.773Z,100054.98
2018-02-04T04:51:41.130Z,100057.92
2018-02-04T04:54:10.333Z,100059.78
2018-02-04T04:56:41.668Z,100062.01
2018-02-04T04:59:12.754Z,100065.60
2018-02-04T05:01:42.007Z,100071.60
2018-02-04T05:04:11.236Z,100076.03
2018-02-04T05:06:41.390Z,100077.49
2018-02-04T05:09:12.440Z,100077.61
2018-02-04T05:11:45.367Z,100085.22
2018-02-04T05:14:15.447Z,100078.10
2018-02-04T05:16:44.702Z,100086.77
2018-02-04T05:19:14.671Z,100090.50
2018-02-04T05:21:43.907Z,100091.05
2018-02-04T05:24:13.973Z,100094.64
2018-02-04T05:26:43.221Z,100096.52
2018-02-04T05:29:13.226Z,100105.33
2018-02-04T05:31:42.445Z,100111.37
2018-02-04T05:34:12.427Z,100115.25
2018-02-04T05:36:41.654Z,100121.28
2018-02-04T05:39:11.694Z,100123.34
2018-02-04T05:41:40.916Z,100131.22
2018-02-04T05:44:10.121Z,100133.08
2018-02-04T05:46:39.427Z,100132.67
2018-02-04T05:49:08.772Z,100141.89
2018-02-04T05:51:38.804Z,100146.97
2018-02-04T05:54:08.004Z,100145.91
2018-02-04T05:56:37.209Z,100145.23
2018-02-04T05:59:06.437Z,100151.11
2018-02-04T06:01:35.761Z,100153.82
2018-02-04T06:04:05.028Z,100158.72
2018-02-04T06:06:34.243Z,100156.05
2018-02-04T06:09:03.471Z,100161.02
2018-02-04T06:11:33.458Z,100161.38
2018-02-04T06:14:02.766Z,100172.19
2018-02-04T06:16:31.932Z,100167.25
2018-02-04T06:19:01.160Z,100165.83
2018-02-04T06:21:33.043Z,100170.33
2018-02-04T06:24:03.015Z,100172.72
2018-02-04T06:26:32.230Z,100179.67
2018-02-04T06:29:01.463Z,100181.73
2018-02-04T06:31:31.452Z,100184.02
2018-02-04T06:34:00.703Z,100180.60
2018-02-04T06:36:29.890Z,100188.94
2018-02-04T06:38:59.247Z,100191.17
2018-02-04T06:41:28.454Z,100186.76
2018-02-04T06:43:58.451Z,100188.69
2018-02-04T06:46:29.168Z,100198.41
2018-02-04T06:48:58.513Z,100201.69
2018-02-04T06:51:28.702Z,100208.97
2018-02-04T06:53:57.959Z,100213.80
2018-02-04T06:56:27.259Z,100219.81
2018-02-04T06:58:57.204Z,100226.35
2018-02-04T07:01:26.432Z,100224.41
2018-02-04T07:03:56.462Z,100220.39
2018-02-04T07:06:25.706Z,100224.95
2018-02-04T07:08:54.890Z,100228.33
2018-02-04T07:11:24.939Z,100237.30
2018-02-04T07:13:54.155Z,100237.62
2018-02-04T07:16:24.138Z,100239.91
2018-02-04T07:18:53.363Z,100245.43
2018-02-04T07:21:23.375Z,100256.08
2018-02-04T07:23:52.582Z,100252.06
2018-02-04T07:26:22.588Z,100249.71
2018-02-04T07:28:51.841Z,100261.08
2018-02-04T07:31:21.074Z,100257.81
2018-02-04T07:33:50.293Z,100264.75
2018-02-04T07:36:20.306Z,100271.58
2018-02-04T07:38:50.291Z,100263.81
2018-02-04T07:41:19.591Z,100272.16
2018-02-04T07:43:48.865Z,100282.78
2018-02-04T07:46:18.058Z,100290.00
2018-02-04T07:48:47.293Z,100294.21
2018-02-04T07:51:16.497Z,100297.36
2018-02-04T07:53:45.785Z,100304.90
2018-02-04T07:56:15.191Z,100313.17
2018-02-04T07:58:44.418Z,100314.11
2018-02-04T08:01:14.423Z,100315.52
2018-02-04T08:03:44.083Z,100322.93
2018-02-04T08:06:13.300Z,100327.96
2018-02-04T08:08:42.581Z,100332.24
2018-02-04T08:11:11.780Z,100342.30
2018-02-04T08:13:40.983Z,100343.14
2018-02-04T08:16:10.225Z,100342.72
2018-02-04T08:18:40.211Z,100353.22
2018-02-04T08:21:09.459Z,100349.39
2018-02-04T08:23:38.719Z,100352.39
2018-02-04T08:26:08.016Z,100359.97
2018-02-04T08:28:37.224Z,100359.09
2018-02-04T08:31:06.446Z,100360.15
2018-02-04T08:33:35.742Z,100373.33
2018-02-04T08:36:05.727Z,100375.86
2018-02-04T08:38:34.970Z,100379.41
2018-02-04T08:41:04.175Z,100383.31
2018-02-04T08:43:33.397Z,100383.84
2018-02-04T08:46:02.597Z,100398.92
2018-02-04T08:48:31.787Z,100398.33
2018-02-04T08:51:00.993Z,100402.00
2018-02-04T08:53:30.232Z,100413.17
2018-02-04T08:56:00.339Z,100412.98
2018-02-04T08:58:31.060Z,100413.37
2018-02-04T09:01:00.256Z,100422.32
2018-02-04T09:03:29.444Z,100426.54
2018-02-04T09:05:58.672Z,100441.61
2018-02-04T09:08:28.639Z,100434.55
2018-02-04T09:10:57.837Z,100438.61
2018-02-04T09:13:27.086Z,100443.87
2018-02-04T09:15:57.044Z,100442.57
2018-02-04T09:18:26.428Z,100452.58
2018-02-04T09:20:55.616Z,100451.34
2018-02-04T09:23:24.801Z,100455.97
2018-02-04T09:25:54.779Z,100453.56
2018-02-04T09:28:24.183Z,100453.95
2018-02-04T09:30:53.424Z,100457.73
2018-02-04T09:33:23.380Z,100455.61
2018-02-04T09:35:52.674Z,100465.61
2018-02-04T09:38:21.993Z,100473.43
2018-02-04T09:40:51.202Z,100471.86
2018-02-04T09:43:20.440Z,100473.58
2018-02-04T09:45:49.683Z,100471.46
2018-02-04T09:48:18.847Z,100474.23
2018-02-04T09:50:48.029Z,100481.70
2018-02-04T09:53:17.277Z,100475.39
2018-02-04T09:55:46.424Z,100478.45
2018-02-04T09:58:15.733Z,100477.92
2018-02-04T10:00:44.947Z,100478.27
2018-02-04T10:03:14.188Z,100482.47
2018-02-04T10:05:43.405Z,100489.59
2018-02-04T10:08:13.503Z,100496.84
2018-02-04T10:10:42.838Z,100497.22
2018-02-04T10:13:12.232Z,100501.39
2018-02-04T10:15:41.417Z,100509.20
2018-02-04T10:18:11.440Z,100510.12
2018-02-04T10:20:41.432Z,100514.62
2018-02-04T10:23:12.033Z,100523.92
2018-02-04T10:25:41.252Z,100528.33
2018-02-04T10:28:10.455Z,100525.71
2018-02-04T10:30:39.814Z,100534.26
2018-02-04T10:33:09.746Z,100531.98
2018-02-04T10:35:39.065Z,100536.50
2018-02-04T10:38:08.280Z,100539.45
2018-02-04T10:40:37.580Z,100543.25
2018-02-04T10:43:06.771Z,100548.77
2018-02-04T10:45:35.970Z,100556.07
2018-02-04T10:48:05.193Z,100559.66
2018-02-04T10:50:34.398Z,100561.57
2018-02-04T10:53:03.676Z,100562.87
2018-02-04T10:55:33.720Z,100565.13
2018-02-04T10:58:02.945Z,100578.09
2018-02-04T11:00:32.944Z,100578.39
2018-02-04T11:03:02.221Z,100577.08
2018-02-04T11:05:31.444Z,100578.88
2018-02-04T11:08:00.797Z,100589.34
2018-02-04T11:10:30.742Z,100582.25
2018-02-04T11:13:00.110Z,100594.16
2018-02-04T11:15:29.326Z,100588.36
2018-02-04T11:17:59.288Z,100589.77
2018-02-04T11:20:28.737Z,100596.81
2018-02-04T11:22:58.821Z,100593.30
2018-02-04T11:25:28.194Z,100596.63
2018-02-04T11:27:58.159Z,100601.81
2018-02-04T11:30:27.339Z,100595.06
2018-02-04T11:32:56.530Z,100600.55
2018-02-04T11:35:25.722Z,100604.24
2018-02-04T11:37:56.655Z,100609.94
2018-02-04T11:40:25.854Z,100613.48
2018-02-04T11:42:55.053Z,100609.95
2018-02-04T11:45:24.233Z,100609.86
2018-02-04T11:47:53.443Z,100617.80
2018-02-04T11:50:22.664Z,100621.66
2018-02-04T11:52:51.913Z,100619.45
2018-02-04T11:55:21.080Z,100617.03
2018-02-04T11:57:51.016Z,100634.28
2018-02-04T12:00:20.345Z,100639.34
2018-02-04T12:02:49.531Z,100636.42
2018-02-04T12:05:18.745Z,100647.57
2018-02-04T12:07:48.055Z,100647.17
2018-02-04T12:10:17.253Z,100650.37
2018-02-04T12:12:46.437Z,100649.23
2018-02-04T12:15:15.737Z,100653.70
2018-02-04T12:17:44.959Z,100648.05
2018-02-04T12:20:14.151Z,100651.47
2018-02-04T12:22:43.413Z,100659.72
2018-02-04T12:25:12.599Z,100664.47
2018-02-04T12:27:41.786Z,100657.63
2018-02-04T12:30:10.955Z,100667.02
2018-02-04T12:32:40.998Z,100660.93
2018-02-04T12:35:10.239Z,100663.39
2018-02-04T12:37:40.415Z,100671.95
2018-02-04T12:40:09.619Z,100666.69
2018-02-04T12:42:38.828Z,100678.45
2018-02-04T12:45:08.058Z,100677.30
2018-02-04T12:47:37.311Z,100677.67
2018-02-04T12:50:06.461Z,100688.69
2018-02-04T12:52:36.680Z,100690.45
2018-02-04T12:55:05.890Z,100688.78
2018-02-04T12:57:35.091Z,100704.02
2018-02-04T13:00:04.346Z,100694.19
2018-02-04T13:02:33.596Z,100705.41
2018-02-04T13:05:02.744Z,100699.35
2018-02-04T13:07:31.950Z,100699.59
2018-02-04T13:10:01.184Z,100696.45
2018-02-04T13:12:31.242Z,100701.96
2018-02-04T13:15:00.580Z,100695.22
2018-02-04T13:17:29.787Z,100699.16
2018-02-04T13:19:58.969Z,100704.94
2018-02-04T13:22:28.382Z,100706.66
2018-02-04T13:24:57.692Z,100698.15
2018-02-04T13:27:26.892Z,100700.70
2018-02-04T13:29:56.872Z,100708.30
2018-02-04T13:32:26.108Z,100704.11
2018-02-04T13:34:55.313Z,100707.69
2018-02-04T13:37:24.548Z,100710.17
2018-02-04T13:39:53.743Z,100713.83
2018-02-04T13:42:23.052Z,100713.59
2018-02-04T13:44:52.394Z,100712.56
2018-02-04T13:47:21.704Z,100724.15
2018-02-04T13:49:50.924Z,100724.38
2018-02-04T13:52:20.102Z,100728.44
2018-02-04T13:54:50.088Z,100726.09
2018-02-04T13:57:20.288Z,100732.64
2018-02-04T13:59:49.477Z,100732.73
2018-02-04T14:02:18.818Z,100729.70
2018-02-04T14:04:48.085Z,100728.16
2018-02-04T14:07:17.290Z,100738.73
2018-02-04T14:09:46.484Z,100740.86
2018-02-04T14:12:15.809Z,100740.83
2018-02-04T14:14:44.995Z,100739.52
2018-02-04T14:17:14.204Z,100744.75
2018-02-04T14:19:43.423Z,100744.70
2018-02-04T14:22:12.605Z,100752.20
2018-02-04T14:24:42.570Z,100758.55
2018-02-04T14:27:11.768Z,100757.06
2018-02-04T14:29:40.976Z,100766.06
2018-02-04T14:32:10.401Z,100768.34
2018-02-04T14:34:39.591Z,100769.80
2018-02-04T14:37:08.807Z,100772.52
2018-02-04T14:39:38.066Z,100771.30
2018-02-04T14:42:08.216Z,100771.64
2018-02-04T14:44:37.436Z,100777.05
2018-02-04T14:47:07.497Z,100775.41
2018-02-04T14:49:36.816Z,100777.70
2018-02-04T14:52:06.049Z,100776.56
2018-02-04T14:54:36.185Z,100784.24
2018-02-04T14:57:06.171Z,100789.47
2018-02-04T14:59:35.415Z,100786.29
2018-02-04T15:02:04.741Z,100791.70
2018-02-04T15:04:34.086Z,100792.98
2018-02-04T15:07:03.326Z,100797.58
2018-02-04T15:09:33.288Z,100798.52
2018-02-04T15:12:02.673Z,100797.33
2018-02-04T15:14:32.847Z,100798.23
2018-02-04T15:17:02.085Z,100800.86
2018-02-04T15:19:31.571Z,100807.33
2018-02-04T15:22:00.753Z,100802.94
2018-02-04T15:24:30.061Z,100811.09
2018-02-04T15:26:59.283Z,100809.39
2018-02-04T15:29:28.488Z,100814.65
2018-02-04T15:31:57.683Z,100815.86
2018-02-04T15:34:26.887Z,100818.66
2018-02-04T15:36:57.595Z,100820.81
2018-02-04T15:39:26.893Z,100824.98
2018-02-04T15:41:56.297Z,100823.64
2018-02-04T15:44:25.569Z,100833.84
2018-02-04T15:46:54.808Z,100827.58
2018-02-04T15:49:24.183Z,100829.91
2018-02-04T15:51:53.405Z,100844.09
2018-02-04T15:54:22.583Z,100843.66
2018-02-04T15:56:52.007Z,100846.23
2018-02-04T15:59:21.175Z,100846.15
2018-02-04T16:01:50.398Z,100842.23
2018-02-04T16:04:19.722Z,100845.69
2018-02-04T16:06:49.829Z,100845.69
2018-02-04T16:09:19.001Z,100850.35
2018-02-04T16:11:48.192Z,100854.49
2018-02-04T16:14:18.332Z,100857.23
2018-02-04T16:16:47.554Z,100869.16
2018-02-04T16:19:16.815Z,100863.99
2018-02-04T16:21:46.635Z,100867.27
2018-02-04T16:24:15.904Z,100874.63
2018-02-04T16:26:45.082Z,100870.34
2018-02-04T16:29:15.228Z,100872.58
2018-02-04T16:31:44.553Z,100874.36
2018-02-04T16:34:13.827Z,100872.39
2018-02-04T16:36:44.077Z,100868.79
2018-02-04T16:39:13.294Z,100876.56
2018-02-04T16:41:42.498Z,100870.44
2018-02-04T16:44:12.695Z,100876.81
2018-02-04T16:46:41.936Z,100882.69
2018-02-04T16:49:11.154Z,100878.02
2018-02-04T16:51:40.375Z,100879.11
2018-02-04T16:54:09.585Z,100888.84
2018-02-04T16:56:38.795Z,100882.19
2018-02-04T16:59:08.076Z,100887.31
2018-02-04T17:01:37.291Z,100886.47
2018-02-04T17:04:06.485Z,100882.89
2018-02-04T17:06:35.878Z,100886.97
2018-02-04T17:09:05.209Z,100892.16
2018-02-04T17:11:35.191Z,100887.50
2018-02-04T17:14:04.382Z,100893.39
2018-02-04T17:16:33.801Z,100895.81
2018-02-04T17:19:03.063Z,100898.52
2018-02-04T17:21:32.314Z,100899.80
2018-02-04T17:24:02.300Z,100908.26
2018-02-04T17:26:31.523Z,100907.73
2018-02-04T17:29:01.483Z,100911.09
2018-02-04T17:31:30.872Z,100913.77
2018-02-04T17:34:00.215Z,100913.48
2018-02-04T17:36:29.485Z,100913.06
2018-02-04T17:38:58.700Z,100922.84
2018-02-04T17:41:27.909Z,100924.70
2018-02-04T17:43:57.107Z,100923.77
2018-02-04T17:46:26.304Z,100921.78
2018-02-04T17:48:55.536Z,100921.22
2018-02-04T17:51:25.508Z,100920.06
2018-02-04T17:53:54.758Z,100915.89
2018-02-04T17:56:25.050Z,100926.62
2018-02-04T17:58:54.264Z,100929.83
2018-02-04T18:01:23.468Z,100936.19
2018-02-04T18:03:53.497Z,100937.11
2018-02-04T18:06:23.568Z,100939.45
2018-02-04T18:08:52.804Z,100945.92
2018-02-04T18:11:22.816Z,100951.95
2018-02-04T18:13:52.171Z,100953.47
2018-02-04T18:16:21.392Z,100949.02
2018-02-04T18:18:50.655Z,100955.02
2018-02-04T18:21:19.855Z,100959.34
2018-02-04T18:23:49.228Z,100957.73
2018-02-04T18:26:18.434Z,100962.95
2018-02-04T18:28:47.682Z,100967.81
2018-02-04T18:31:16.920Z,100975.01
2018-02-04T18:33:46.920Z,100979.03
2018-02-04T18:36:16.118Z,100977.02
2018-02-04T18:38:45.325Z,100981.80
2018-02-04T18:41:14.716Z,100977.97
2018-02-04T18:43:44.032Z,100987.56
2018-02-04T18:46:14.068Z,100990.20
2018-02-04T18:48:44.264Z,100989.84
2018-02-04T18:51:14.358Z,100992.10
2018-02-04T18:53:44.011Z,100996.75
2018-02-04T18:56:13.324Z,101003.36
2018-02-04T18:58:43.323Z,100994.53
2018-02-04T19:01:12.556Z,101008.91
2018-02-04T19:03:41.811Z,101007.58
2018-02-04T19:06:11.312Z,101007.95
2018-02-04T19:08:40.539Z,101015.16
2018-02-04T19:11:09.797Z,101013.34
2018-02-04T19:13:39.807Z,101022.53
2018-02-04T19:16:09.932Z,101021.84
2018-02-04T19:18:39.956Z,101021.19
2018-02-04T19:21:09.956Z,101040.55
2018-02-04T19:23:39.244Z,101036.01
2018-02-04T19:26:09.309Z,101046.81
2018-02-04T19:28:38.569Z,101046.20
2018-02-04T19:31:07.771Z,101049.97
2018-02-04T19:33:37.781Z,101048.14
2018-02-04T19:36:07.841Z,101050.89
2018-02-04T19:38:37.099Z,101049.20
2018-02-04T19:41:06.646Z,101052.45
2018-02-04T19:43:36.111Z,101059.66
2018-02-04T19:46:06.214Z,101063.73
2018-02-04T19:48:35.430Z,101065.34
2018-02-04T19:51:05.435Z,101063.96
2018-02-04T19:53:34.800Z,101068.78
2018-02-04T19:56:04.200Z,101071.89
2018-02-04T19:58:33.480Z,101070.56
2018-02-04T20:01:02.727Z,101076.14
2018-02-04T20:03:32.065Z,101071.97
2018-02-04T20:06:01.309Z,101058.89
2018-02-04T20:08:30.574Z,101060.89
2018-02-04T20:10:59.884Z,101062.96
2018-02-04T20:13:29.141Z,101076.69
2018-02-04T20:15:58.455Z,101078.18
2018-02-04T20:18:27.704Z,101069.87
2018-02-04T20:20:57.043Z,101069.01
2018-02-04T20:23:27.070Z,101072.62
2018-02-04T20:25:56.337Z,101073.55
2018-02-04T20:28:25.618Z,101074.24
2018-02-04T20:30:54.966Z,101081.45
2018-02-04T20:33:24.237Z,101078.81
2018-02-04T20:35:53.500Z,101088.57
2018-02-04T20:38:22.743Z,101093.17
2018-02-04T20:40:52.087Z,101096.59
2018-02-04T20:43:21.335Z,101096.70
2018-02-04T20:45:50.586Z,101090.43
2018-02-04T20:48:19.890Z,101097.39
2018-02-04T20:50:49.138Z,101104.44
2018-02-04T20:53:18.357Z,101102.47
2018-02-04T20:55:48.368Z,101103.22
2018-02-04T20:58:18.383Z,101110.27
2018-02-04T21:00:48.593Z,101117.11
2018-02-04T21:03:18.030Z,101122.41
2018-02-04T21:05:47.357Z,101121.41
2018-02-04T21:08:16.615Z,101123.35
2018-02-04T21:10:45.883Z,101122.63
2018-02-04T21:13:15.118Z,101129.72
2018-02-04T21:15:44.446Z,101122.30
2018-02-04T21:18:13.680Z,101129.20
2018-02-04T21:20:42.903Z,101129.94
2018-02-04T21:23:12.969Z,101133.42
2018-02-04T21:25:42.369Z,101139.26
2018-02-04T21:28:11.612Z,101137.73
2018-02-04T21:30:40.934Z,101137.58
2018-02-04T21:33:10.180Z,101134.95
2018-02-04T21:35:39.439Z,101129.69
2018-02-04T21:38:08.738Z,101135.20
2018-02-04T21:40:38.071Z,101138.34
2018-02-04T21:43:07.310Z,101142.15
2018-02-04T21:45:37.307Z,101142.37
2018-02-04T21:48:06.567Z,101141.22
2018-02-04T21:50:35.809Z,101143.23
2018-02-04T21:53:05.053Z,101147.01
2018-02-04T21:55:34.365Z,101159.79
2018-02-04T21:58:03.614Z,101158.05
2018-02-04T22:00:33.666Z,101153.36
2018-02-04T22:03:02.945Z,101164.58
2018-02-04T22:05:32.286Z,101158.83
2018-02-04T22:08:01.519Z,101162.34
2018-02-04T22:10:30.726Z,101162.24
2018-02-04T22:13:00.139Z,101162.66
2018-02-04T22:15:30.138Z,101158.05
2018-02-04T22:18:00.228Z,101164.73
2018-02-04T22:20:29.507Z,101168.16
2018-02-04T22:22:58.747Z,101165.45
2018-02-04T22:25:27.993Z,101168.41
2018-02-04T22:27:57.223Z,101170.73
2018-02-04T22:30:26.426Z,101166.19
2018-02-04T22:32:55.668Z,101177.13
2018-02-04T22:35:24.920Z,101166.06
2018-02-04T22:37:54.258Z,101176.18
2018-02-04T22:40:24.257Z,101180.67
2018-02-04T22:42:54.999Z,101181.42
2018-02-04T22:45:25.018Z,101179.88
2018-02-04T22:47:55.037Z,101184.30
2018-02-04T22:50:24.251Z,101190.32
2018-02-04T22:52:53.506Z,101183.06
2018-02-04T22:55:22.785Z,101190.55
2018-02-04T22:57:52.021Z,101195.83
2018-02-04T23:00:22.062Z,101195.63
2018-02-04T23:02:52.050Z,101204.02
2018-02-04T23:05:21.306Z,101199.73
2018-02-04T23:07:50.559Z,101200.02
2018-02-04T23:10:20.859Z,101202.13
2018-02-04T23:12:50.097Z,101200.00
2018-02-04T23:15:20.154Z,101202.60
2018-02-04T23:17:49.370Z,101203.48
2018-02-04T23:20:18.674Z,101204.92
2018-02-04T23:22:48.819Z,101202.62
2018-02-04T23:25:18.958Z,101200.47
2018-02-04T23:27:49.030Z,101192.80
2018-02-04T23:30:18.265Z,101198.19
2018-02-04T23:32:47.515Z,101201.34
2018-02-04T23:35:16.773Z,101198.58
2018-02-04T23:37:46.154Z,101203.11
2018-02-04T23:40:16.269Z,101202.87
2018-02-04T23:42:47.171Z,101202.87
2018-02-04T23:45:20.168Z,101195.39
2018-02-04T23:47:49.493Z,101197.33
2018-02-04T23:50:43.573Z,101192.72
2018-02-04T23:53:12.936Z,101196.47
2018-02-04T23:55:42.464Z,101193.94
2018-02-04T23:58:12.182Z,101199.28
